Time;durP1;ratioP1;P1;durP2;ratioP2;P2;SDS_P1;SDS_P2;PMS_P1;PMS_P2;Temp;Humidity;BMP_temperature;BMP_pressure;BME280_temperature;BME280_humidity;BME280_pressure;Samples;Min_cycle;Max_cycle;Signal;HPM_P1;HPM_P2
2022/04/24 00:00:09;;;;;;;41.50;25.30;;;;;;;6.64;63.13;98166.33;105960;1274;95114;-68
2022/04/24 00:02:57;;;;;;;40.50;26.00;;;;;;;6.64;63.32;98163.86;106079;1273;112577;-68
2022/04/24 00:05:26;;;;;;;59.50;39.60;;;;;;;6.63;63.39;98161.98;106115;1273;96718;-66
2022/04/24 00:07:55;;;;;;;58.70;36.90;;;;;;;6.62;63.14;98158.54;106211;1274;107400;-67
2022/04/24 00:10:24;;;;;;;46.00;27.30;;;;;;;6.62;63.38;98155.00;106129;1273;96600;-66
2022/04/24 00:12:52;;;;;;;40.60;25.40;;;;;;;6.61;63.38;98154.55;106138;1273;95178;-67
2022/04/24 00:15:20;;;;;;;41.20;24.90;;;;;;;6.62;63.29;98155.56;106202;1274;110318;-67
2022/04/24 00:17:49;;;;;;;41.20;25.90;;;;;;;6.63;63.55;98152.14;106115;1274;96648;-67
2022/04/24 00:20:19;;;;;;;41.10;25.30;;;;;;;6.62;63.32;98148.46;106146;1273;110678;-67
2022/04/24 00:22:47;;;;;;;42.10;24.90;;;;;;;6.62;63.60;98147.60;106072;1274;95035;-68
2022/04/24 00:25:15;;;;;;;43.40;27.50;;;;;;;6.60;63.42;98152.32;106077;1273;96612;-67
2022/04/24 00:27:44;;;;;;;46.40;29.20;;;;;;;6.57;63.42;98146.75;106128;1273;110623;-68
2022/04/24 00:30:14;;;;;;;45.90;27.20;;;;;;;6.53;63.33;98145.06;106145;1273;94340;-68
2022/04/24 00:32:44;;;;;;;42.20;26.80;;;;;;;6.51;63.34;98142.05;106072;1274;108809;-66
2022/04/24 00:35:12;;;;;;;42.50;27.60;;;;;;;6.48;63.47;98143.16;106093;1274;96529;-68
2022/04/24 00:37:40;;;;;;;40.40;25.10;;;;;;;6.39;63.21;98145.19;106182;1274;96612;-68
2022/04/24 00:40:12;;;;;;;44.00;25.80;;;;;;;6.23;63.34;98142.55;106093;1273;110703;-66
2022/04/24 00:42:41;;;;;;;41.30;25.10;;;;;;;6.11;63.22;98141.14;106008;1274;94856;-67
2022/04/24 00:45:12;;;;;;;44.30;27.30;;;;;;;5.99;63.41;98137.67;106094;1273;108516;-68
2022/04/24 00:47:46;;;;;;;42.00;26.90;;;;;;;5.98;63.55;98135.13;106025;1274;96555;-66
2022/04/24 00:50:17;;;;;;;41.70;24.80;;;;;;;5.96;63.53;98139.10;106094;1274;95625;-67
2022/04/24 00:52:49;;;;;;;43.80;29.00;;;;;;;5.83;63.50;98137.50;106031;1274;111450;-68
2022/04/24 00:55:23;;;;;;;42.60;26.90;;;;;;;5.73;63.45;98142.06;106036;1274;96549;-67
2022/04/24 00:57:52;;;;;;;43.40;26.40;;;;;;;5.69;63.72;98141.65;106019;1274;107756;-67
2022/04/24 01:00:23;;;;;;;40.40;24.80;;;;;;;5.68;63.83;98142.92;106054;1273;97803;-69
2022/04/24 01:02:52;;;;;;;41.80;25.90;;;;;;;5.71;63.94;98143.41;106086;1273;96517;-69
2022/04/24 01:05:25;;;;;;;41.30;25.80;;;;;;;5.74;63.88;98138.27;107180;1273;110751;-68
2022/04/24 01:07:52;;;;;;;41.00;25.70;;;;;;;5.75;64.01;98137.38;106014;1274;96606;-67
2022/04/24 01:10:20;;;;;;;41.40;25.20;;;;;;;5.74;63.91;98138.52;106032;1273;111159;-69
2022/04/24 01:12:48;;;;;;;40.90;26.70;;;;;;;5.73;63.88;98138.20;106043;1273;95000;-68
2022/04/24 01:15:17;;;;;;;45.10;27.00;;;;;;;5.72;63.89;98137.57;106067;1273;96513;-68
2022/04/24 01:17:47;;;;;;;45.00;26.90;;;;;;;5.71;64.02;98136.91;106059;1273;110645;-71
2022/04/24 01:20:22;;;;;;;43.50;27.80;;;;;;;5.68;63.92;98138.35;106053;1273;95233;-66
2022/04/24 01:22:51;;;;;;;40.40;26.40;;;;;;;5.66;63.89;98137.06;105914;1274;108154;-67
2022/04/24 01:25:20;;;;;;;42.90;27.70;;;;;;;5.63;64.07;98133.42;106026;1274;94950;-66
2022/04/24 01:27:48;;;;;;;42.70;27.30;;;;;;;5.57;63.94;98136.27;106065;1274;96503;-67
2022/04/24 01:30:16;;;;;;;42.30;26.80;;;;;;;5.55;64.02;98136.76;106080;1274;110734;-68
2022/04/24 01:32:44;;;;;;;44.30;26.10;;;;;;;5.55;64.17;98130.98;106085;1274;96607;-67
2022/04/24 01:35:13;;;;;;;41.40;27.10;;;;;;;5.55;64.12;98126.23;106065;1274;108786;-68
2022/04/24 01:37:45;;;;;;;39.50;25.10;;;;;;;5.54;64.22;98124.15;106085;1274;96526;-67
2022/04/24 01:40:13;;;;;;;38.00;25.40;;;;;;;5.54;64.30;98123.48;106071;1274;96871;-69
2022/04/24 01:42:43;;;;;;;41.50;26.60;;;;;;;5.53;64.20;98122.30;106018;1274;110697;-66
2022/04/24 01:45:11;;;;;;;41.80;26.00;;;;;;;5.53;64.25;98121.03;105973;1273;96635;-65
2022/04/24 01:47:41;;;;;;;38.80;24.70;;;;;;;5.53;64.28;98120.89;105973;1273;108462;-68
2022/04/24 01:50:10;;;;;;;43.50;25.00;;;;;;;5.54;64.41;98119.64;105968;1271;96487;-68
2022/04/24 01:52:38;;;;;;;38.00;24.10;;;;;;;5.52;64.38;98118.17;106099;1274;96540;-66
2022/04/24 01:55:11;;;;;;;39.30;23.90;;;;;;;5.49;64.30;98112.20;106150;1274;110618;-66
2022/04/24 01:57:40;;;;;;;37.70;22.50;;;;;;;5.47;64.32;98113.89;106121;1274;97227;-66
2022/04/24 02:00:11;;;;;;;41.10;24.60;;;;;;;5.47;64.30;98113.69;106115;1274;108367;-67
2022/04/24 02:02:39;;;;;;;35.30;21.30;;;;;;;5.47;64.43;98114.25;106203;1271;96497;-66
2022/04/24 02:05:10;;;;;;;36.60;22.00;;;;;;;5.46;64.51;98111.84;106074;1274;96543;-68
2022/04/24 02:07:38;;;;;;;35.90;22.50;;;;;;;5.47;64.50;98114.24;106018;1273;110746;-66
2022/04/24 02:10:10;;;;;;;35.50;21.50;;;;;;;5.47;64.44;98113.02;106095;1273;94996;-68
2022/04/24 02:12:40;;;;;;;34.70;21.40;;;;;;;5.45;64.55;98108.23;106047;1273;107404;-67
2022/04/24 02:15:09;;;;;;;35.40;20.80;;;;;;;5.43;64.61;98101.30;106079;1273;96645;-67
2022/04/24 02:17:40;;;;;;;35.90;22.20;;;;;;;5.43;64.66;98103.24;106074;1273;94916;-68
2022/04/24 02:20:11;;;;;;;36.80;21.20;;;;;;;5.42;64.54;98106.65;106069;1274;110672;-67
2022/04/24 02:22:39;;;;;;;39.80;23.50;;;;;;;5.33;64.43;98105.66;105994;1273;96547;-67
2022/04/24 02:25:10;;;;;;;36.00;22.50;;;;;;;5.26;64.52;98108.59;105986;1274;108173;-65
2022/04/24 02:27:40;;;;;;;38.10;23.90;;;;;;;5.21;64.50;98110.37;106053;1273;96599;-66
2022/04/24 02:30:11;;;;;;;38.10;21.90;;;;;;;5.15;64.58;98108.79;106038;1274;96552;-65
2022/04/24 02:32:39;;;;;;;36.60;23.00;;;;;;;5.14;64.63;98111.82;106000;1273;110680;-66
2022/04/24 02:35:07;;;;;;;43.70;23.10;;;;;;;5.16;64.72;98109.64;106005;1273;95840;-65
2022/04/24 02:37:42;;;;;;;35.00;20.30;;;;;;;5.15;64.69;98108.95;106011;1273;108830;-66
2022/04/24 02:40:14;;;;;;;35.80;21.60;;;;;;;5.13;64.67;98104.54;105950;1276;96578;-65
2022/04/24 02:42:41;;;;;;;36.60;22.20;;;;;;;5.13;64.77;98102.10;106048;1274;96466;-66
2022/04/24 02:45:11;;;;;;;36.50;21.90;;;;;;;5.13;64.78;98100.51;105994;1274;111217;-66
2022/04/24 02:47:40;;;;;;;37.30;22.40;;;;;;;5.11;64.87;98096.23;106012;1274;96547;-67
2022/04/24 02:50:12;;;;;;;38.80;23.10;;;;;;;5.12;64.88;98098.14;106050;1274;108305;-67
2022/04/24 02:52:48;;;;;;;35.20;22.60;;;;;;;5.11;64.97;98098.13;106073;1274;96610;-65
2022/04/24 02:55:22;;;;;;;33.80;20.70;;;;;;;5.11;64.89;98095.20;106114;1276;96626;-68
2022/04/24 02:57:52;;;;;;;36.00;21.40;;;;;;;5.08;64.88;98093.10;106027;1276;110784;-67
2022/04/24 03:00:25;;;;;;;38.50;24.50;;;;;;;5.03;64.88;98095.33;106046;1274;96629;-67
2022/04/24 03:02:54;;;;;;;39.60;22.40;;;;;;;4.94;64.96;98093.29;105959;1274;107765;-68
2022/04/24 03:05:24;;;;;;;38.30;22.80;;;;;;;4.83;64.76;98094.54;105941;1274;95154;-68
2022/04/24 03:07:52;;;;;;;37.20;23.20;;;;;;;4.76;64.90;98094.46;105942;1274;96502;-68
2022/04/24 03:10:20;;;;;;;38.30;22.70;;;;;;;4.69;64.95;98096.12;106050;1274;110622;-67
2022/04/24 03:12:48;;;;;;;36.90;22.20;;;;;;;4.62;64.92;98094.49;106108;1274;96514;-67
2022/04/24 03:15:16;;;;;;;36.20;21.80;;;;;;;4.56;64.98;98096.56;106136;1274;108857;-66
2022/04/24 03:17:49;;;;;;;35.50;20.10;;;;;;;4.55;64.94;98100.16;106100;1274;96632;-67
2022/04/24 03:20:18;;;;;;;35.70;21.00;;;;;;;4.55;64.88;98101.94;106151;1274;96548;-67
2022/04/24 03:22:52;;;;;;;36.60;22.00;;;;;;;4.57;64.93;98099.55;106052;1276;110654;-67
2022/04/24 03:25:20;;;;;;;36.80;22.10;;;;;;;4.54;65.00;98097.40;106119;1274;96505;-66
2022/04/24 03:27:52;;;;;;;36.70;22.60;;;;;;;4.52;65.05;98096.85;105889;1274;109011;-66
2022/04/24 03:30:22;;;;;;;34.00;20.60;;;;;;;4.49;65.15;98092.85;106110;1274;96545;-66
2022/04/24 03:32:50;;;;;;;31.90;19.70;;;;;;;4.48;65.24;98093.95;106106;1274;96583;-65
2022/04/24 03:35:18;;;;;;;33.70;20.10;;;;;;;4.46;65.12;98094.80;106078;1274;110690;-67
2022/04/24 03:37:46;;;;;;;35.40;20.90;;;;;;;4.44;65.28;98095.27;106142;1274;94244;-65
2022/04/24 03:40:14;;;;;;;35.80;20.20;;;;;;;4.42;65.45;98097.48;104692;1274;1836289;-65
2022/04/24 03:42:45;;;;;;;33.40;19.50;;;;;;;4.42;65.30;98094.83;106057;1274;96595;-66
2022/04/24 03:45:15;;;;;;;32.80;18.60;;;;;;;4.43;65.52;98098.33;106000;1274;96517;-65
2022/04/24 03:47:43;;;;;;;32.80;19.10;;;;;;;4.42;65.38;98099.05;106050;1274;111376;-68
2022/04/24 03:50:14;;;;;;;32.60;19.20;;;;;;;4.42;65.53;98103.28;106084;1274;96495;-68
2022/04/24 03:52:42;;;;;;;31.40;19.10;;;;;;;4.43;65.62;98103.55;106044;1274;108382;-67
2022/04/24 03:55:15;;;;;;;32.40;18.60;;;;;;;4.46;65.63;98105.10;105967;1273;96600;-68
2022/04/24 03:57:43;;;;;;;30.70;18.10;;;;;;;4.48;65.78;98107.63;105972;1273;96529;-67
2022/04/24 04:00:14;;;;;;;30.40;18.00;;;;;;;4.49;65.81;98109.36;105973;1273;110801;-67
2022/04/24 04:02:47;;;;;;;30.80;18.30;;;;;;;4.49;65.76;98109.88;106047;1273;95633;-67
2022/04/24 04:05:20;;;;;;;30.00;17.70;;;;;;;4.49;65.84;98108.83;106127;1273;107395;-66
2022/04/24 04:07:48;;;;;;;29.40;17.40;;;;;;;4.49;65.61;98110.20;106141;1273;97127;-68
2022/04/24 04:10:16;;;;;;;29.90;17.60;;;;;;;4.49;65.81;98109.15;106276;1273;94244;-68
2022/04/24 04:12:44;;;;;;;30.10;17.50;;;;;;;4.50;65.99;98109.45;106201;1274;110668;-68
2022/04/24 04:15:13;;;;;;;30.40;17.90;;;;;;;4.52;66.00;98107.87;106081;1273;97818;-67
2022/04/24 04:17:40;;;;;;;29.80;16.40;;;;;;;4.57;65.99;98106.55;106094;1273;108245;-68
2022/04/24 04:20:11;;;;;;;29.50;18.50;;;;;;;4.60;66.14;98108.11;106063;1273;96464;-69
2022/04/24 04:22:53;;;;;;;29.90;18.00;;;;;;;4.61;65.90;98107.13;106126;1273;96571;-68
2022/04/24 04:25:25;;;;;;;27.50;15.60;;;;;;;4.65;66.06;98107.47;106254;1274;108343;-69
2022/04/24 04:27:53;;;;;;;28.10;16.00;;;;;;;4.69;66.03;98101.70;106079;1274;96641;-68
2022/04/24 04:30:24;;;;;;;31.40;18.00;;;;;;;4.75;66.12;98102.39;106211;1274;107690;-67
2022/04/24 04:32:53;;;;;;;30.30;17.30;;;;;;;4.82;66.17;98100.73;106187;1273;96511;-67
2022/04/24 04:35:24;;;;;;;30.20;17.70;;;;;;;4.90;66.25;98100.95;106201;1273;96521;-67
2022/04/24 04:37:55;;;;;;;31.10;16.90;;;;;;;4.99;66.47;98101.41;106064;1273;110716;-67
2022/04/24 04:40:23;;;;;;;27.50;15.10;;;;;;;5.07;66.45;98093.83;106059;1273;94257;-67
2022/04/24 04:42:52;;;;;;;27.70;15.90;;;;;;;5.16;66.45;98096.58;105994;1273;108564;-68
2022/04/24 04:45:21;;;;;;;29.80;15.70;;;;;;;5.25;66.45;98097.60;106144;1273;95015;-68
2022/04/24 04:47:53;;;;;;;25.70;14.70;;;;;;;5.32;66.46;98093.41;106123;1273;94379;-66
2022/04/24 04:50:21;;;;;;;26.40;14.80;;;;;;;5.38;66.50;98094.27;106177;1273;110686;-67
2022/04/24 04:52:51;;;;;;;28.30;15.90;;;;;;;5.43;66.56;98098.52;106098;1274;94366;-67
2022/04/24 04:55:19;;;;;;;26.40;15.40;;;;;;;5.47;66.49;98099.33;106092;1273;108411;-67
2022/04/24 04:57:49;;;;;;;26.00;14.30;;;;;;;5.52;66.58;98102.66;106156;1273;96551;-65
2022/04/24 05:00:21;;;;;;;25.20;14.60;;;;;;;5.58;66.47;98107.52;106255;1274;96626;-63
2022/04/24 05:02:51;;;;;;;27.70;14.90;;;;;;;5.63;66.74;98105.59;106175;1274;110748;-66
2022/04/24 05:05:23;;;;;;;29.50;15.60;;;;;;;5.69;66.79;98096.42;106190;1274;96651;-67
2022/04/24 05:07:52;;;;;;;27.60;14.70;;;;;;;5.74;66.79;98093.23;106192;1274;108102;-69
2022/04/24 05:10:22;;;;;;;29.60;16.60;;;;;;;5.79;66.71;98088.66;106050;1273;96539;-66
2022/04/24 05:12:52;;;;;;;27.70;16.30;;;;;;;5.84;66.63;98086.08;106227;1273;96513;-67
2022/04/24 05:15:22;;;;;;;25.90;13.80;;;;;;;5.92;66.79;98086.79;106210;1274;110419;-67
2022/04/24 05:17:54;;;;;;;25.80;14.30;;;;;;;6.00;66.78;98084.13;106173;1274;96177;-67
2022/04/24 05:20:22;;;;;;;26.80;15.30;;;;;;;6.08;66.88;98082.02;106147;1274;108395;-69
2022/04/24 05:22:50;;;;;;;26.10;13.80;;;;;;;6.17;67.01;98082.80;106194;1274;95031;-69
2022/04/24 05:25:18;;;;;;;24.20;12.80;;;;;;;6.28;67.12;98084.30;106211;1274;94932;-67
2022/04/24 05:27:46;;;;;;;22.80;12.00;;;;;;;6.39;67.18;98082.98;106062;1274;110590;-65
2022/04/24 05:30:14;;;;;;;23.30;12.10;;;;;;;6.51;67.32;98080.91;106050;1274;96555;-67
2022/04/24 05:32:48;;;;;;;22.90;11.30;;;;;;;6.64;67.13;98076.64;106065;1274;107382;-67
2022/04/24 05:35:18;;;;;;;20.60;10.50;;;;;;;6.76;67.06;98080.23;105999;1273;96509;-65
2022/04/24 05:37:49;;;;;;;21.70;11.10;;;;;;;6.87;67.22;98087.89;105994;1273;96631;-67
2022/04/24 05:40:20;;;;;;;24.00;10.90;;;;;;;6.96;67.27;98089.29;106029;1273;110149;-67
2022/04/24 05:42:53;;;;;;;19.60;10.50;;;;;;;7.04;67.05;98095.61;106000;1273;96638;-64
2022/04/24 05:45:26;;;;;;;20.60;10.70;;;;;;;7.09;67.26;98095.58;106055;1274;107786;-64
2022/04/24 05:47:57;;;;;;;22.20;11.60;;;;;;;7.14;67.22;98094.52;106012;1274;94941;-65
2022/04/24 05:50:27;;;;;;;22.40;11.80;;;;;;;7.18;67.23;98098.66;106052;1274;96517;-67
2022/04/24 05:52:58;;;;;;;21.00;10.50;;;;;;;7.21;67.25;98098.10;106062;1274;109800;-65
2022/04/24 05:55:26;;;;;;;21.20;11.50;;;;;;;7.27;67.21;98100.23;106035;1274;96497;-65
2022/04/24 05:57:55;;;;;;;21.60;11.00;;;;;;;7.33;67.14;98097.39;106020;1274;108518;-64
2022/04/24 06:00:26;;;;;;;23.50;11.70;;;;;;;7.39;67.40;98097.99;106057;1274;95180;-65
2022/04/24 06:02:54;;;;;;;22.40;11.20;;;;;;;7.47;67.18;98095.08;105986;1273;96516;-68
2022/04/24 06:05:24;;;;;;;22.40;11.60;;;;;;;7.57;67.09;98089.23;106122;1273;109587;-66
2022/04/24 06:07:54;;;;;;;22.30;11.20;;;;;;;7.65;67.28;98089.67;106014;1273;95038;-64
2022/04/24 06:10:24;;;;;;;23.90;11.60;;;;;;;7.73;67.19;98090.98;105963;1274;108431;-65
2022/04/24 06:12:56;;;;;;;23.00;11.70;;;;;;;7.80;67.25;98085.70;106055;1274;96524;-66
2022/04/24 06:15:28;;;;;;;19.60;10.20;;;;;;;7.89;67.28;98085.55;106015;1273;96666;-66
2022/04/24 06:17:59;;;;;;;20.70;10.60;;;;;;;8.01;67.33;98083.71;106067;1273;111093;-66
2022/04/24 06:20:30;;;;;;;19.50;9.90;;;;;;;8.15;67.27;98077.72;106058;1273;96514;-67
2022/04/24 06:23:00;;;;;;;21.60;10.60;;;;;;;8.28;67.31;98073.36;106064;1273;108150;-68
2022/04/24 06:25:36;;;;;;;18.40;9.10;;;;;;;8.41;67.30;98077.10;106174;1274;96613;-66
2022/04/24 06:28:08;;;;;;;18.10;8.40;;;;;;;8.54;67.21;98075.88;106183;1274;97601;-68
2022/04/24 06:30:40;;;;;;;19.50;9.50;;;;;;;8.63;67.29;98077.98;106053;1273;111108;-70
2022/04/24 06:33:11;;;;;;;16.80;8.00;;;;;;;8.70;67.40;98082.80;106044;1274;96540;-70
2022/04/24 06:35:42;;;;;;;20.80;8.50;;;;;;;8.75;67.47;98087.35;106035;1274;108886;-69
2022/04/24 06:38:10;;;;;;;19.70;9.00;;;;;;;8.78;67.26;98096.13;106022;1274;96595;-69
2022/04/24 06:40:38;;;;;;;18.00;8.70;;;;;;;8.80;67.38;98095.59;106087;1274;96313;-70
2022/04/24 06:43:07;;;;;;;17.60;7.40;;;;;;;8.78;67.26;98095.21;105922;1274;110700;-68
2022/04/24 06:45:40;;;;;;;16.40;7.90;;;;;;;8.78;67.36;98096.10;106029;1274;94857;-67
2022/04/24 06:48:10;;;;;;;16.80;8.10;;;;;;;8.78;67.25;98092.86;105961;1273;108513;-67
2022/04/24 06:50:40;;;;;;;16.20;7.60;;;;;;;8.78;67.40;98088.10;105832;1274;95227;-69
2022/04/24 06:53:10;;;;;;;17.20;8.20;;;;;;;8.81;67.30;98084.90;105917;1274;96521;-69
2022/04/24 06:55:41;;;;;;;16.60;7.60;;;;;;;8.83;67.41;98087.22;105916;1274;111237;-67
2022/04/24 06:58:11;;;;;;;16.50;7.90;;;;;;;8.88;67.53;98084.17;105967;1274;95046;-67
2022/04/24 07:00:42;;;;;;;17.70;8.00;;;;;;;8.94;67.52;98080.63;105843;1274;109362;-70
2022/04/24 07:03:30;;;;;;;14.90;7.30;;;;;;;9.08;67.22;98080.05;107959;1273;94659;-69
2022/04/24 07:06:00;;;;;;;17.70;7.40;;;;;;;9.29;67.20;98076.02;106395;1273;94277;-67
2022/04/24 07:08:29;;;;;;;15.20;7.20;;;;;;;9.43;67.16;98076.63;105813;1274;110749;-68
2022/04/24 07:10:57;;;;;;;15.80;7.10;;;;;;;9.47;67.21;98073.14;105943;1274;96506;-68
2022/04/24 07:13:25;;;;;;;15.70;7.20;;;;;;;9.52;67.30;98071.52;105964;1274;108468;-68
2022/04/24 07:15:53;;;;;;;16.70;7.20;;;;;;;9.59;67.27;98073.70;106058;1274;94790;-69
2022/04/24 07:18:22;;;;;;;16.30;7.80;;;;;;;9.73;67.05;98069.20;106144;1274;96520;-69
2022/04/24 07:20:52;;;;;;;16.70;7.30;;;;;;;9.89;67.14;98070.31;106136;1274;109235;-71
2022/04/24 07:23:20;;;;;;;18.70;7.70;;;;;;;9.97;67.24;98065.52;106166;1274;96618;-69
2022/04/24 07:25:49;;;;;;;13.70;6.10;;;;;;;10.06;67.22;98067.29;106118;1274;107774;-70
2022/04/24 07:28:22;;;;;;;13.20;6.60;;;;;;;10.18;67.24;98064.43;106018;1274;94258;-70
2022/04/24 07:30:50;;;;;;;15.20;6.50;;;;;;;10.49;66.89;98062.31;106081;1274;94399;-70
2022/04/24 07:33:18;;;;;;;15.40;6.40;;;;;;;10.69;67.02;98055.80;105943;1274;110939;-67
2022/04/24 07:35:46;;;;;;;13.40;6.40;;;;;;;10.75;67.07;98053.29;106063;1274;96547;-70
2022/04/24 07:38:14;;;;;;;12.00;5.80;;;;;;;10.94;67.11;98053.16;106119;1274;108470;-70
2022/04/24 07:40:42;;;;;;;11.10;5.50;;;;;;;11.13;67.07;98050.23;106145;1274;94253;-68
2022/04/24 07:43:12;;;;;;;14.30;5.90;;;;;;;11.60;66.60;98053.63;106125;1273;96597;-70
2022/04/24 07:45:42;;;;;;;12.40;5.60;;;;;;;12.10;66.49;98051.93;106113;1274;111869;-69
2022/04/24 07:48:11;;;;;;;11.80;5.50;;;;;;;12.36;66.68;98053.98;106033;1274;96390;-68
2022/04/24 07:50:39;;;;;;;10.50;5.70;;;;;;;12.58;66.53;98055.11;106090;1274;107550;-68
2022/04/24 07:53:09;;;;;;;12.50;5.30;;;;;;;12.67;66.41;98051.54;106017;1274;95133;-68
2022/04/24 07:55:39;;;;;;;10.20;5.70;;;;;;;12.85;66.20;98053.16;106118;1274;96639;-69
2022/04/24 07:58:08;;;;;;;12.10;5.60;;;;;;;12.73;66.51;98057.65;106090;1274;110761;-67
2022/04/24 08:00:36;;;;;;;13.10;5.60;;;;;;;12.64;66.66;98063.52;106193;1274;94399;-67
2022/04/24 08:03:06;;;;;;;10.20;4.90;;;;;;;12.50;66.65;98063.98;106177;1273;107407;-68
2022/04/24 08:05:43;;;;;;;12.50;6.10;;;;;;;12.41;66.67;98063.42;106158;1274;97211;-68
2022/04/24 08:08:15;;;;;;;11.30;5.60;;;;;;;12.35;66.56;98056.37;106165;1273;96509;-67
2022/04/24 08:10:55;;;;;;;10.90;5.50;;;;;;;12.24;66.29;98061.34;106061;1273;110033;-68
2022/04/24 08:13:25;;;;;;;12.30;5.50;;;;;;;12.09;66.23;98061.17;106143;1273;96183;-66
2022/04/24 08:15:57;;;;;;;11.60;5.60;;;;;;;12.06;66.34;98066.88;106036;1273;108413;-64
2022/04/24 08:18:25;;;;;;;10.90;5.70;;;;;;;12.04;66.22;98067.09;106047;1274;96427;-67
2022/04/24 08:20:55;;;;;;;13.30;5.80;;;;;;;12.00;66.19;98071.02;106029;1274;96522;-64
2022/04/24 08:23:25;;;;;;;12.30;5.50;;;;;;;11.96;66.12;98063.27;105938;1274;110553;-64
2022/04/24 08:25:54;;;;;;;13.00;6.20;;;;;;;11.86;66.19;98068.23;105659;1274;95194;-67
2022/04/24 08:28:25;;;;;;;11.50;5.90;;;;;;;11.78;65.96;98064.95;105927;1273;106988;-66
2022/04/24 08:30:54;;;;;;;13.80;6.30;;;;;;;11.71;65.88;98061.85;106034;1274;96634;-65
2022/04/24 08:33:23;;;;;;;12.90;5.90;;;;;;;11.62;65.86;98062.50;105982;1273;96576;-67
2022/04/24 08:35:51;;;;;;;12.60;6.00;;;;;;;11.57;65.84;98057.63;105894;1274;110725;-66
2022/04/24 08:38:22;;;;;;;13.10;6.20;;;;;;;11.51;65.69;98055.63;106015;1274;96648;-69
2022/04/24 08:40:53;;;;;;;11.80;5.90;;;;;;;11.45;65.75;98046.41;105887;1272;108306;-70
2022/04/24 08:43:26;;;;;;;13.30;6.00;;;;;;;11.42;65.58;98042.30;106021;1274;96402;-67
2022/04/24 08:45:54;;;;;;;12.80;6.00;;;;;;;11.39;65.69;98030.09;106109;1274;97274;-68
2022/04/24 08:48:24;;;;;;;14.30;6.80;;;;;;;11.39;65.57;98030.52;106047;1274;109663;-68
2022/04/24 08:50:58;;;;;;;11.40;5.60;;;;;;;11.42;65.41;98031.52;105962;1274;96564;-68
2022/04/24 08:53:31;;;;;;;12.10;6.10;;;;;;;11.44;65.30;98030.56;106001;1274;106633;-70
2022/04/24 08:56:02;;;;;;;10.30;5.30;;;;;;;11.50;65.41;98033.92;106182;1274;96517;-69
2022/04/24 08:58:31;;;;;;;13.30;5.50;;;;;;;11.54;65.34;98040.16;106152;1273;97238;-70
2022/04/24 09:01:00;;;;;;;11.90;5.50;;;;;;;11.52;65.34;98038.55;105973;1274;110682;-69
2022/04/24 09:03:29;;;;;;;11.40;5.30;;;;;;;11.50;65.30;98039.27;105978;1274;96542;-69
2022/04/24 09:05:59;;;;;;;12.90;5.10;;;;;;;11.49;65.27;98037.78;106117;1274;107224;-68
2022/04/24 09:08:27;;;;;;;10.30;5.20;;;;;;;11.45;65.24;98035.60;105951;1274;96612;-67
2022/04/24 09:11:22;;;;;;;12.40;5.50;;;;;;;11.43;65.15;98035.83;106023;1274;96639;-68
2022/04/24 09:16:47;;;;;;;10.40;4.80;;;;;;;11.44;65.11;98039.27;106160;1274;96540;-72
2022/04/24 09:19:25;;;;;;;10.40;5.00;;;;;;;11.43;65.15;98035.86;106124;1273;107720;-70
2022/04/24 09:22:10;;;;;;;11.00;5.20;;;;;;;11.41;65.00;98035.13;106153;1274;94302;-69
2022/04/24 09:24:44;;;;;;;11.00;5.00;;;;;;;11.41;64.89;98039.39;106176;1273;96656;-70
2022/04/24 09:27:30;;;;;;;9.10;4.80;;;;;;;11.37;64.83;98037.05;106223;1271;110669;-71
2022/04/24 09:30:06;;;;;;;8.80;4.60;;;;;;;11.36;64.83;98035.39;105878;1273;94906;-71
2022/04/24 09:32:56;;;;;;;10.50;4.90;;;;;;;11.38;64.86;98033.98;105930;1274;107502;-69
2022/04/24 09:35:36;;;;;;;11.90;5.30;;;;;;;11.39;64.72;98031.58;106010;1274;96603;-73
2022/04/24 09:38:06;;;;;;;13.20;5.80;;;;;;;11.40;64.89;98027.60;106001;1274;94255;-69
2022/04/24 09:40:45;;;;;;;11.00;5.00;;;;;;;11.40;64.55;98015.55;106021;1275;110047;-71
2022/04/24 09:43:19;;;;;;;9.60;4.90;;;;;;;11.38;64.58;98013.39;105995;1274;96526;-69
2022/04/24 09:45:54;;;;;;;12.20;5.70;;;;;;;11.41;64.47;98015.23;106060;1273;107706;-69
2022/04/24 09:48:25;;;;;;;10.60;5.30;;;;;;;11.43;64.40;98018.77;106097;1274;96652;-72
2022/04/24 09:50:55;;;;;;;11.50;5.30;;;;;;;11.49;64.54;98021.05;106203;1274;96669;-70
2022/04/24 09:53:23;;;;;;;13.90;6.00;;;;;;;11.63;64.59;98020.11;106112;1274;110555;-70
2022/04/24 09:55:51;;;;;;;12.70;5.60;;;;;;;11.71;64.57;98014.42;106050;1274;94696;-70
2022/04/24 09:58:22;;;;;;;12.10;5.00;;;;;;;11.75;64.24;98017.23;106218;1274;107558;-70
2022/04/24 10:00:53;;;;;;;12.70;5.20;;;;;;;11.74;64.38;98016.95;106205;1274;96540;-69
2022/04/24 10:03:21;;;;;;;11.20;5.20;;;;;;;11.75;64.42;98014.89;106166;1273;94336;-71
2022/04/24 10:05:49;;;;;;;11.70;5.00;;;;;;;11.76;64.20;98010.89;106144;1274;110841;-70
2022/04/24 10:08:21;;;;;;;9.20;4.50;;;;;;;11.74;64.25;98014.34;106120;1274;95810;-71
2022/04/24 10:10:51;;;;;;;12.00;5.30;;;;;;;11.71;64.13;98015.83;106088;1274;107803;-70
2022/04/24 10:13:22;;;;;;;9.20;4.40;;;;;;;11.72;64.18;98016.11;106079;1274;96494;-69
2022/04/24 10:16:18;;;;;;;9.60;4.70;;;;;;;11.71;64.25;98017.96;106053;1274;95208;-70
2022/04/24 10:19:11;;;;;;;7.80;4.20;;;;;;;11.71;64.34;98020.27;106076;1273;110756;-70
2022/04/24 10:22:03;;;;;;;8.70;4.40;;;;;;;11.73;64.24;98025.23;106078;1274;96632;-70
2022/04/24 10:24:40;;;;;;;7.00;3.80;;;;;;;11.74;64.23;98028.90;106029;1273;107041;-69
